Time;durP1;ratioP1;P1;durP2;ratioP2;P2;SDS_P1;SDS_P2;PMS_P1;PMS_P2;Temp;Humidity;BMP_temperature;BMP_pressure;BME280_temperature;BME280_humidity;BME280_pressure;Samples;Min_cycle;Max_cycle;Signal;HPM_P1;HPM_P2
2021/07/04 00:00:29;;;;;;;6.33;3.30;;;;;;;18.98;69.27;101034.53;5044632;28;20515;-69
2021/07/04 00:02:59;;;;;;;5.20;3.50;;;;;;;18.93;69.47;101048.59;5044619;28;20205;-69
2021/07/04 00:05:30;;;;;;;6.83;3.60;;;;;;;18.81;70.23;101030.75;5048253;28;20198;-69
2021/07/04 00:07:58;;;;;;;5.77;3.33;;;;;;;18.81;69.66;101037.06;5046895;28;20225;-69
2021/07/04 00:10:28;;;;;;;5.63;4.03;;;;;;;18.76;70.00;101039.38;5048010;28;20221;-69
2021/07/04 00:12:58;;;;;;;10.17;3.80;;;;;;;18.72;69.79;101034.38;5046484;28;20210;-69
2021/07/04 00:15:28;;;;;;;5.33;3.57;;;;;;;18.68;69.47;101022.09;5047374;28;20198;-66
2021/07/04 00:17:56;;;;;;;5.80;3.60;;;;;;;18.64;69.71;101040.53;5045478;28;20216;-65
2021/07/04 00:20:25;;;;;;;5.00;3.40;;;;;;;18.54;69.80;101031.53;5046192;28;20205;-65
2021/07/04 00:22:54;;;;;;;4.30;3.40;;;;;;;18.56;70.08;101040.41;5045064;28;20198;-65
2021/07/04 00:25:27;;;;;;;7.37;3.60;;;;;;;18.41;70.60;101040.03;5039952;28;20197;-66
2021/07/04 00:27:58;;;;;;;6.03;4.10;;;;;;;18.40;70.58;101041.03;5044757;28;20198;-66
2021/07/04 00:30:27;;;;;;;8.53;4.07;;;;;;;18.38;69.80;101043.06;5044721;28;20221;-65
2021/07/04 00:32:55;;;;;;;3.90;3.50;;;;;;;18.34;69.85;101040.75;5045226;28;22017;-65
2021/07/04 00:35:24;;;;;;;6.10;3.50;;;;;;;18.31;70.34;101042.75;5045719;28;20228;-66
2021/07/04 00:37:53;;;;;;;5.00;3.60;;;;;;;18.08;70.32;101011.50;5045885;28;20209;-66
2021/07/04 00:40:23;;;;;;;8.13;3.40;;;;;;;18.18;70.96;101039.50;5044530;28;20565;-65
2021/07/04 00:42:52;;;;;;;4.23;3.30;;;;;;;18.13;70.87;101039.09;5043506;28;20230;-65
2021/07/04 00:45:24;;;;;;;6.70;3.67;;;;;;;18.09;70.42;101032.22;5045206;28;20198;-65
2021/07/04 00:47:55;;;;;;;8.37;3.27;;;;;;;18.05;70.27;101030.78;5059001;28;20259;-66
2021/07/04 00:50:26;;;;;;;4.70;3.33;;;;;;;17.93;70.36;101012.94;5043947;28;20218;-66
2021/07/04 00:52:55;;;;;;;7.90;3.63;;;;;;;17.88;70.21;101012.50;5043076;28;20198;-65
2021/07/04 00:55:28;;;;;;;4.80;3.47;;;;;;;17.89;69.94;101015.09;5043238;28;20652;-69
2021/07/04 00:58:01;;;;;;;4.90;3.40;;;;;;;17.92;70.07;101032.97;5044562;28;20225;-69
2021/07/04 01:00:36;;;;;;;4.90;3.50;;;;;;;17.89;69.86;101025.94;5044570;28;20202;-65
2021/07/04 01:03:06;;;;;;;5.63;3.40;;;;;;;17.87;69.58;101027.97;5043029;28;20198;-65
2021/07/04 01:05:40;;;;;;;4.40;3.40;;;;;;;17.80;70.26;101023.25;5045054;28;20212;-65
2021/07/04 01:08:10;;;;;;;6.97;3.60;;;;;;;17.80;70.75;101031.41;5044524;28;20281;-66
2021/07/04 01:10:40;;;;;;;5.57;3.87;;;;;;;17.77;70.03;101020.81;5056843;28;20226;-65
2021/07/04 01:13:14;;;;;;;5.47;3.57;;;;;;;17.75;69.86;101012.78;5060963;28;20248;-65
2021/07/04 01:16:02;;;;;;;6.27;3.67;;;;;;;17.78;69.71;101012.53;5060465;28;20202;-65
2021/07/04 01:18:31;;;;;;;6.07;3.90;;;;;;;17.79;70.29;101013.38;5042802;28;20256;-67
2021/07/04 01:21:05;;;;;;;4.60;3.33;;;;;;;17.55;71.65;101016.50;5046400;28;20200;-66
2021/07/04 01:23:41;;;;;;;8.20;3.90;;;;;;;17.56;70.64;101012.78;5044511;28;20828;-66
2021/07/04 01:26:11;;;;;;;4.83;3.50;;;;;;;17.55;70.67;101011.91;5043629;28;20679;-65
2021/07/04 01:28:39;;;;;;;5.40;3.70;;;;;;;17.47;71.08;101011.78;5059042;28;20210;-65
2021/07/04 01:31:10;;;;;;;5.73;3.50;;;;;;;17.42;71.14;101021.31;5043825;28;21054;-69
2021/07/04 01:33:43;;;;;;;4.50;3.60;;;;;;;17.38;71.33;101016.19;5046179;28;20204;-69
2021/07/04 01:36:21;;;;;;;5.13;3.23;;;;;;;17.38;70.88;101026.19;5034930;28;20202;-70
2021/07/04 01:38:52;;;;;;;6.63;3.27;;;;;;;17.39;70.70;101019.75;5044789;28;20251;-69
2021/07/04 01:41:20;;;;;;;8.33;3.97;;;;;;;17.37;71.27;101021.75;5042148;28;20627;-66
2021/07/04 01:43:52;;;;;;;6.57;3.30;;;;;;;17.26;72.10;101022.75;5033921;28;20206;-65
2021/07/04 01:46:23;;;;;;;11.23;3.47;;;;;;;17.13;71.88;101023.97;5042967;28;20421;-65
2021/07/04 01:48:57;;;;;;;4.83;3.60;;;;;;;17.13;71.99;101021.28;5037023;28;20216;-66
2021/07/04 01:51:26;;;;;;;4.60;3.17;;;;;;;17.16;71.62;101023.72;5034052;28;20655;-66
2021/07/04 01:53:56;;;;;;;8.03;4.00;;;;;;;17.17;71.03;101025.44;5029195;28;20213;-66
2021/07/04 01:56:32;;;;;;;4.97;3.57;;;;;;;17.15;71.34;101019.31;5044583;28;20217;-66
2021/07/04 01:59:01;;;;;;;5.17;3.53;;;;;;;17.15;70.82;101016.59;5039949;28;20850;-66
2021/07/04 02:01:44;;;;;;;4.93;3.60;;;;;;;17.07;71.46;101018.13;5028085;28;20210;-66
2021/07/04 02:04:13;;;;;;;3.70;3.23;;;;;;;17.04;70.98;101012.97;5033821;28;20210;-66
2021/07/04 02:06:44;;;;;;;5.07;3.60;;;;;;;17.03;71.49;101018.53;5052060;28;20263;-66
2021/07/04 02:09:15;;;;;;;6.57;3.70;;;;;;;17.00;71.28;101016.97;5048789;28;20237;-65
2021/07/04 02:11:46;;;;;;;5.60;3.57;;;;;;;16.92;71.56;101019.53;5050741;28;20226;-69
2021/07/04 02:14:15;;;;;;;5.10;3.60;;;;;;;16.90;71.97;101018.81;5050540;28;20204;-69
2021/07/04 02:16:54;;;;;;;5.10;4.00;;;;;;;16.91;71.25;101023.22;5054531;28;20239;-69
2021/07/04 02:19:42;;;;;;;5.73;3.77;;;;;;;16.90;72.18;101026.09;5050681;28;20206;-70
2021/07/04 02:22:32;;;;;;;5.07;3.67;;;;;;;16.88;71.35;101022.66;5062855;28;20604;-70
2021/07/04 02:25:13;;;;;;;5.37;3.73;;;;;;;16.83;71.88;101020.31;5051559;28;20209;-70
2021/07/04 02:27:43;;;;;;;6.63;3.60;;;;;;;16.82;71.64;101015.91;5051479;28;20893;-70
2021/07/04 02:30:32;;;;;;;8.93;3.60;;;;;;;16.82;70.87;101009.63;5042317;28;20234;-70
2021/07/04 02:33:06;;;;;;;4.97;3.53;;;;;;;16.51;72.07;100982.47;5046603;28;20661;-70
2021/07/04 02:35:37;;;;;;;5.03;3.40;;;;;;;16.68;72.09;101019.00;5050871;28;20198;-70
2021/07/04 02:38:06;;;;;;;6.27;3.80;;;;;;;16.72;71.89;101009.59;5053228;28;20200;-70
2021/07/04 02:40:39;;;;;;;5.43;3.60;;;;;;;16.88;72.19;101003.66;5050913;28;20205;-70
2021/07/04 02:43:10;;;;;;;4.60;3.17;;;;;;;16.99;72.37;101009.81;5044906;28;20661;-70
2021/07/04 02:45:39;;;;;;;780.00;563.10;;;;;;;17.13;73.10;101022.13;5061932;28;20823;-70
2021/07/04 02:48:16;;;;;;;4.43;3.17;;;;;;;17.33;73.00;101012.16;5046239;28;20730;-70
2021/07/04 02:50:50;;;;;;;7.70;3.30;;;;;;;17.48;73.55;101016.22;5039254;28;20309;-70
2021/07/04 02:53:23;;;;;;;5.43;3.40;;;;;;;17.64;73.73;101019.19;5056937;28;20744;-70
2021/07/04 02:55:55;;;;;;;6.50;3.73;;;;;;;17.87;73.57;101013.50;5047360;28;20232;-70
2021/07/04 02:58:29;;;;;;;4.87;3.43;;;;;;;18.21;74.48;101020.19;5049406;28;20216;-70
2021/07/04 03:00:58;;;;;;;6.70;3.40;;;;;;;18.46;74.27;101021.41;5046326;28;20217;-69
2021/07/04 03:03:27;;;;;;;5.07;3.57;;;;;;;18.68;72.84;101022.94;5045603;28;20513;-70
2021/07/04 03:05:57;;;;;;;5.67;3.07;;;;;;;18.69;71.85;101029.25;5048198;28;20212;-69
2021/07/04 03:08:26;;;;;;;4.30;3.37;;;;;;;18.57;71.72;101031.25;5049219;28;20511;-69
2021/07/04 03:10:57;;;;;;;6.30;3.33;;;;;;;18.66;71.15;101014.03;5049656;28;20313;-70
2021/07/04 03:13:31;;;;;;;4.17;3.20;;;;;;;18.66;70.73;100980.53;5049864;28;20308;-69
2021/07/04 03:16:03;;;;;;;4.20;3.30;;;;;;;19.24;70.78;101038.25;5050138;28;20210;-70
2021/07/04 03:18:32;;;;;;;4.60;3.00;;;;;;;19.56;69.35;101023.28;5050182;28;20199;-70
2021/07/04 03:21:01;;;;;;;4.67;2.93;;;;;;;19.60;69.21;101038.34;5050916;28;20570;-70
2021/07/04 03:23:30;;;;;;;3.47;3.17;;;;;;;19.65;69.15;101022.38;5051269;28;20259;-70
2021/07/04 03:26:04;;;;;;;5.17;3.57;;;;;;;19.49;69.12;101039.38;5046635;28;20215;-69
2021/07/04 03:28:33;;;;;;;4.23;3.20;;;;;;;19.54;68.55;101032.47;5050144;28;20206;-70
2021/07/04 03:31:12;;;;;;;4.83;3.47;;;;;;;19.60;69.06;101036.47;5045537;28;20256;-70
2021/07/04 03:33:41;;;;;;;4.53;3.17;;;;;;;19.69;69.30;101035.53;5044296;28;20210;-70
2021/07/04 03:36:10;;;;;;;3.87;2.93;;;;;;;19.77;68.91;101034.75;5045635;28;20195;-70
2021/07/04 03:38:42;;;;;;;4.43;3.13;;;;;;;19.75;69.74;101029.47;5041637;28;20305;-69
2021/07/04 03:41:11;;;;;;;6.30;3.00;;;;;;;19.78;69.43;101031.00;5049305;28;20684;-70
2021/07/04 03:43:41;;;;;;;4.00;3.13;;;;;;;19.85;69.95;101041.13;5046314;28;20194;-70
2021/07/04 03:46:09;;;;;;;3.27;2.87;;;;;;;19.83;69.38;101026.81;5040986;28;20281;-70
2021/07/04 03:48:43;;;;;;;3.73;3.37;;;;;;;19.85;69.83;101029.38;5045992;28;20257;-69
2021/07/04 03:51:18;;;;;;;5.63;3.17;;;;;;;19.82;69.64;101035.13;5047855;28;20225;-69
2021/07/04 03:53:47;;;;;;;3.93;3.00;;;;;;;19.76;69.64;101027.59;5045376;28;20214;-66
2021/07/04 03:56:17;;;;;;;3.77;3.10;;;;;;;19.81;69.55;101022.53;5048363;28;20552;-70
2021/07/04 03:58:45;;;;;;;3.60;2.97;;;;;;;19.84;69.58;101023.06;5043781;28;20743;-68
2021/07/04 04:01:19;;;;;;;3.43;2.90;;;;;;;19.85;69.24;101027.50;5044118;28;20210;-69
2021/07/04 04:03:51;;;;;;;3.50;2.90;;;;;;;19.85;68.69;101022.03;5043344;28;20220;-70
2021/07/04 04:06:20;;;;;;;5.63;3.10;;;;;;;19.68;68.62;100997.53;5046226;28;20213;-69
2021/07/04 04:08:56;;;;;;;4.87;3.23;;;;;;;19.81;69.08;101027.97;5044692;28;20210;-70
2021/07/04 04:11:34;;;;;;;4.87;3.30;;;;;;;19.81;69.92;101027.97;5048909;28;20662;-70
2021/07/04 04:14:10;;;;;;;4.50;3.40;;;;;;;19.81;69.83;101028.81;5064819;28;20206;-66
2021/07/04 04:16:42;;;;;;;5.60;2.93;;;;;;;19.87;68.70;101027.34;5049631;28;20207;-68
2021/07/04 04:19:14;;;;;;;4.00;3.07;;;;;;;19.87;68.75;101034.66;5047763;28;20204;-69
2021/07/04 04:21:43;;;;;;;3.93;3.00;;;;;;;19.80;69.03;101018.09;5061248;28;20220;-69
2021/07/04 04:24:12;;;;;;;5.17;3.17;;;;;;;19.90;68.89;101032.50;5046835;28;20225;-69
2021/07/04 04:26:43;;;;;;;5.07;3.47;;;;;;;19.92;68.56;101030.47;5048022;28;20205;-69
2021/07/04 04:29:13;;;;;;;5.67;3.30;;;;;;;19.92;68.52;101030.47;5046960;28;20785;-69
2021/07/04 04:31:43;;;;;;;3.93;3.13;;;;;;;19.96;67.89;101042.78;5044213;28;20281;-69
2021/07/04 04:34:13;;;;;;;3.83;3.17;;;;;;;19.98;68.53;101035.28;5040702;28;20212;-70
2021/07/04 04:36:41;;;;;;;4.90;3.10;;;;;;;20.01;68.50;101037.69;5050028;28;20209;-69
2021/07/04 04:39:10;;;;;;;4.70;3.30;;;;;;;20.08;67.94;101029.72;5055532;28;20209;-69
2021/07/04 04:41:38;;;;;;;4.17;2.93;;;;;;;20.13;67.90;101027.38;5053384;28;20204;-69
2021/07/04 04:44:10;;;;;;;3.23;2.87;;;;;;;20.17;67.36;101036.94;5049772;28;20197;-66
2021/07/04 04:46:38;;;;;;;5.63;3.00;;;;;;;20.19;68.00;101042.25;5045759;28;20245;-66
2021/07/04 04:49:08;;;;;;;3.37;2.70;;;;;;;20.21;67.14;101037.53;5041799;28;20580;-65
2021/07/04 04:51:36;;;;;;;7.27;2.90;;;;;;;20.24;67.02;101039.94;5056304;28;20262;-65
2021/07/04 04:54:04;;;;;;;4.03;2.93;;;;;;;20.28;67.86;101046.78;5055993;28;20205;-66
2021/07/04 04:56:33;;;;;;;3.87;3.07;;;;;;;20.20;69.09;101035.78;5056656;28;20208;-69
2021/07/04 04:59:01;;;;;;;3.80;3.17;;;;;;;20.35;68.20;101048.69;5048476;28;20214;-69
2021/07/04 05:01:31;;;;;;;3.73;2.73;;;;;;;20.41;67.45;101045.34;5049139;28;20815;-69
2021/07/04 05:03:59;;;;;;;7.27;3.17;;;;;;;20.58;67.95;101049.06;5047911;28;20202;-70
2021/07/04 05:06:28;;;;;;;3.40;2.70;;;;;;;20.77;68.42;101051.53;5051422;28;20221;-69
2021/07/04 05:08:56;;;;;;;4.47;3.10;;;;;;;20.87;68.89;101045.13;5049758;28;20206;-70
2021/07/04 05:11:24;;;;;;;3.37;2.87;;;;;;;21.18;68.43;101051.75;5055164;28;20298;-65
2021/07/04 05:13:52;;;;;;;4.97;2.60;;;;;;;21.39;68.13;101049.44;5060562;28;20194;-66
2021/07/04 05:16:20;;;;;;;3.17;2.50;;;;;;;21.54;68.34;101043.34;5051478;28;20277;-67
2021/07/04 05:18:50;;;;;;;3.30;2.83;;;;;;;21.78;67.38;101046.09;5052775;28;20612;-66
2021/07/04 05:21:18;;;;;;;4.70;2.80;;;;;;;21.90;67.71;101028.34;5052372;28;20206;-67
2021/07/04 05:23:47;;;;;;;6.23;3.00;;;;;;;22.08;66.31;101041.03;5049393;28;20197;-67
2021/07/04 05:26:18;;;;;;;3.47;2.37;;;;;;;22.28;65.55;101045.09;5047978;28;20189;-66
2021/07/04 05:28:46;;;;;;;3.60;2.77;;;;;;;22.42;64.97;101043.56;5047013;28;20206;-66
2021/07/04 05:31:14;;;;;;;4.27;2.97;;;;;;;22.57;63.64;101045.41;5040618;28;20222;-66
2021/07/04 05:33:43;;;;;;;4.00;2.80;;;;;;;22.94;63.92;101041.19;5055597;28;20679;-66
2021/07/04 05:36:12;;;;;;;4.50;2.50;;;;;;;22.83;61.53;101038.84;5049936;28;20197;-66
2021/07/04 05:38:42;;;;;;;3.50;2.50;;;;;;;22.91;61.79;101039.69;5046475;28;20576;-66
2021/07/04 05:41:10;;;;;;;2.97;2.60;;;;;;;23.16;60.94;101036.84;5046682;28;20638;-68
2021/07/04 05:43:39;;;;;;;4.37;2.37;;;;;;;23.52;60.68;101039.88;5044718;28;20240;-67
2021/07/04 05:46:09;;;;;;;2.63;2.40;;;;;;;23.79;60.44;101041.28;5050999;28;20221;-68
2021/07/04 05:48:42;;;;;;;4.63;2.53;;;;;;;23.93;58.15;101031.41;5037308;28;20237;-67
2021/07/04 05:51:12;;;;;;;2.50;2.25;;;;;;;24.00;57.75;101044.22;5053017;28;20665;-69
2021/07/04 05:53:40;;;;;;;3.50;2.50;;;;;;;24.11;55.63;101032.78;5046404;28;20590;-69
2021/07/04 05:56:08;;;;;;;4.57;2.20;;;;;;;24.19;56.42;101023.66;5039445;28;20237;-69
2021/07/04 05:58:37;;;;;;;2.80;2.38;;;;;;;24.27;56.36;101020.81;5052766;28;20225;-68
2021/07/04 06:01:05;;;;;;;2.85;2.25;;;;;;;24.54;54.29;101040.50;5056801;28;20973;-68
2021/07/04 06:03:33;;;;;;;5.63;2.35;;;;;;;24.56;53.14;101042.00;5051365;28;20565;-68
2021/07/04 06:06:01;;;;;;;2.93;2.10;;;;;;;24.49;53.96;101043.81;5056075;28;20855;-68
2021/07/04 06:08:31;;;;;;;4.03;2.20;;;;;;;24.73;53.69;101039.91;5056482;28;20201;-68
2021/07/04 06:10:59;;;;;;;3.15;2.28;;;;;;;25.05;52.35;101042.31;5049803;28;20194;-67
2021/07/04 06:13:27;;;;;;;2.28;2.03;;;;;;;25.22;51.97;101040.22;5052187;28;20252;-68
2021/07/04 06:15:57;;;;;;;2.88;2.30;;;;;;;25.25;51.37;101028.81;5052406;28;20194;-68
2021/07/04 06:18:28;;;;;;;4.80;2.40;;;;;;;25.53;51.16;101039.09;5061078;28;20198;-68
2021/07/04 06:20:56;;;;;;;4.68;2.35;;;;;;;25.67;51.63;101033.56;5063989;28;20276;-68
2021/07/04 06:23:25;;;;;;;2.15;1.95;;;;;;;25.80;51.40;101037.53;5052637;28;20558;-68
2021/07/04 06:25:54;;;;;;;3.75;2.45;;;;;;;26.13;50.18;101037.84;5049184;28;20735;-68
2021/07/04 06:28:22;;;;;;;3.47;2.20;;;;;;;26.05;49.18;101035.22;5055516;28;20564;-67
2021/07/04 06:30:51;;;;;;;2.83;2.30;;;;;;;26.13;49.49;101044.19;5058788;28;20593;-66
2021/07/04 06:33:19;;;;;;;2.58;2.30;;;;;;;26.13;49.30;101037.84;5054882;28;20291;-66
2021/07/04 06:35:47;;;;;;;2.85;2.28;;;;;;;26.28;48.83;101039.44;5042485;28;20581;-66
2021/07/04 06:38:16;;;;;;;2.45;2.10;;;;;;;26.31;48.68;101033.53;5044926;28;20671;-66
2021/07/04 06:40:44;;;;;;;2.80;1.90;;;;;;;26.35;48.12;101039.53;5047355;28;20198;-66
2021/07/04 06:43:13;;;;;;;4.15;2.30;;;;;;;26.53;47.11;101030.75;5052828;28;20200;-66
2021/07/04 06:45:43;;;;;;;2.47;2.28;;;;;;;26.65;48.15;101031.06;5047371;28;20240;-66
2021/07/04 06:48:11;;;;;;;2.47;2.28;;;;;;;26.85;47.72;101032.88;5045577;28;20194;-66
2021/07/04 06:50:39;;;;;;;2.28;1.92;;;;;;;27.21;47.70;101032.66;5044906;28;20199;-66
2021/07/04 06:53:07;;;;;;;4.85;2.38;;;;;;;27.20;46.39;101030.94;5046086;28;20484;-66
2021/07/04 06:55:36;;;;;;;3.25;2.20;;;;;;;27.27;47.30;101030.16;5054008;28;20205;-65
2021/07/04 06:58:04;;;;;;;3.60;2.40;;;;;;;27.57;46.47;101038.94;5045604;28;20207;-65
2021/07/04 07:00:33;;;;;;;3.55;2.15;;;;;;;27.89;46.61;101031.84;5048339;28;20213;-65
2021/07/04 07:03:01;;;;;;;2.42;2.22;;;;;;;28.04;46.38;101035.22;5050254;28;20198;-65
2021/07/04 07:05:30;;;;;;;2.38;2.17;;;;;;;28.60;45.73;101032.91;5052668;28;20213;-66
2021/07/04 07:07:58;;;;;;;2.20;2.00;;;;;;;28.67;45.28;101035.66;5049533;28;20712;-65
2021/07/04 07:10:26;;;;;;;2.80;2.00;;;;;;;29.25;45.30;101038.50;5051004;28;20209;-66
2021/07/04 07:12:54;;;;;;;2.20;2.00;;;;;;;29.74;45.23;101028.69;5061643;28;20606;-68
2021/07/04 07:15:28;;;;;;;2.63;1.95;;;;;;;30.09;43.78;101024.41;5037036;28;20195;-66
2021/07/04 07:17:59;;;;;;;2.22;2.03;;;;;;;30.37;42.79;101031.44;5053502;28;20198;-66
2021/07/04 07:20:27;;;;;;;3.17;2.15;;;;;;;30.44;41.66;101030.28;5052073;28;20483;-68
2021/07/04 07:22:55;;;;;;;2.95;2.20;;;;;;;30.40;41.15;101030.97;5053724;28;20195;-69
2021/07/04 07:25:32;;;;;;;2.40;2.20;;;;;;;30.55;41.89;101025.91;5055674;28;20293;-68
2021/07/04 07:28:00;;;;;;;2.35;2.08;;;;;;;30.30;40.58;101017.59;5046469;28;20199;-65
2021/07/04 07:30:35;;;;;;;2.90;2.38;;;;;;;30.24;40.73;101012.97;5050360;28;20229;-69
2021/07/04 07:33:08;;;;;;;5.13;2.30;;;;;;;29.97;40.43;101010.38;5050692;28;20272;-65
2021/07/04 07:35:38;;;;;;;2.95;2.10;;;;;;;30.01;41.39;101013.59;5053955;28;20705;-66
2021/07/04 07:38:08;;;;;;;4.90;2.17;;;;;;;30.37;41.27;101012.03;5048331;28;20824;-68
2021/07/04 07:40:37;;;;;;;3.00;2.03;;;;;;;30.33;41.57;101003.31;5052989;28;20205;-68
2021/07/04 07:43:06;;;;;;;2.20;2.00;;;;;;;30.68;40.78;100980.59;5054973;28;20600;-67
2021/07/04 07:45:36;;;;;;;2.00;1.90;;;;;;;31.41;40.02;101011.06;5061024;28;20201;-67
2021/07/04 07:48:12;;;;;;;4.53;2.05;;;;;;;31.64;39.45;101002.84;5056531;28;20200;-67
2021/07/04 07:50:54;;;;;;;2.35;2.00;;;;;;;31.89;39.33;101011.03;5057948;28;20224;-67
2021/07/04 07:53:22;;;;;;;4.22;2.53;;;;;;;31.25;38.77;101008.97;5061855;28;20278;-71
2021/07/04 07:55:50;;;;;;;2.97;2.10;;;;;;;31.77;37.73;101004.59;5061884;28;20430;-72
2021/07/04 07:58:21;;;;;;;3.42;2.47;;;;;;;31.87;38.71;101002.09;5052922;28;20209;-71
2021/07/04 08:00:55;;;;;;;2.33;2.13;;;;;;;32.23;38.08;100998.28;5061595;28;20201;-66
2021/07/04 08:03:24;;;;;;;4.05;1.75;;;;;;;32.57;38.29;101001.34;5058503;28;20213;-67
2021/07/04 08:05:53;;;;;;;2.58;2.00;;;;;;;32.63;38.13;101003.97;5047239;28;20237;-67
2021/07/04 08:08:23;;;;;;;3.50;1.95;;;;;;;32.85;38.02;101004.25;5031430;28;20213;-67
2021/07/04 08:10:51;;;;;;;3.85;2.20;;;;;;;32.92;37.57;100998.53;5059083;28;20209;-66
2021/07/04 08:13:19;;;;;;;2.78;1.90;;;;;;;32.57;36.95;101002.19;5060877;28;20224;-67
2021/07/04 08:15:47;;;;;;;1.90;1.80;;;;;;;32.91;37.10;100997.69;5054867;28;20663;-67
2021/07/04 08:18:16;;;;;;;1.75;1.65;;;;;;;33.08;36.78;100989.44;5059792;28;20196;-67
2021/07/04 08:20:45;;;;;;;1.95;1.63;;;;;;;33.31;35.96;100994.94;5060121;28;20205;-66
2021/07/04 08:23:13;;;;;;;4.13;1.98;;;;;;;33.35;36.16;100992.50;5063097;28;20201;-67
2021/07/04 08:25:41;;;;;;;2.10;1.80;;;;;;;33.69;35.21;100998.16;5065968;28;20523;-67
2021/07/04 08:28:10;;;;;;;2.28;1.90;;;;;;;33.76;35.46;100993.28;5054589;28;20205;-67
2021/07/04 08:30:38;;;;;;;2.00;1.80;;;;;;;33.97;35.61;100992.53;5058816;28;20229;-67
2021/07/04 08:33:07;;;;;;;2.05;1.92;;;;;;;33.55;33.10;100990.09;5062137;28;20205;-67
2021/07/04 08:35:36;;;;;;;2.00;1.80;;;;;;;33.73;34.09;100982.63;5064497;28;20208;-67
2021/07/04 08:38:06;;;;;;;2.90;1.63;;;;;;;34.08;34.39;100980.47;5064732;28;20209;-67
2021/07/04 08:40:34;;;;;;;1.83;1.73;;;;;;;34.28;34.23;100981.88;5055433;28;20233;-67
2021/07/04 08:43:03;;;;;;;1.73;1.63;;;;;;;34.48;34.32;100980.31;5062218;28;20661;-71
2021/07/04 08:45:36;;;;;;;2.65;2.00;;;;;;;34.27;33.83;100989.41;5051483;28;20204;-71
2021/07/04 08:48:05;;;;;;;3.38;1.80;;;;;;;33.90;32.86;100987.13;5056326;28;20232;-71
2021/07/04 08:50:34;;;;;;;1.80;1.70;;;;;;;34.21;33.64;100991.28;5054281;28;20236;-71
2021/07/04 08:53:03;;;;;;;2.55;1.70;;;;;;;34.31;33.13;100985.03;5055343;28;20247;-71
2021/07/04 08:55:32;;;;;;;2.05;1.85;;;;;;;34.21;32.29;100976.50;5060015;28;20205;-71
2021/07/04 08:58:00;;;;;;;2.22;1.80;;;;;;;33.79;32.74;100987.19;5059712;28;20219;-70
2021/07/04 09:00:28;;;;;;;2.08;1.75;;;;;;;33.09;31.34;100976.34;5062110;28;20606;-70
2021/07/04 09:02:57;;;;;;;1.90;1.80;;;;;;;32.53;31.53;100975.94;5056647;28;20682;-67
2021/07/04 09:05:25;;;;;;;1.70;1.60;;;;;;;32.20;33.00;100972.91;5059022;28;20200;-67
2021/07/04 09:07:53;;;;;;;1.85;1.75;;;;;;;32.09;32.89;100974.56;5055189;28;20206;-68
2021/07/04 09:10:22;;;;;;;1.67;1.58;;;;;;;32.39;33.05;100972.53;5057500;28;20198;-67
2021/07/04 09:12:53;;;;;;;1.60;1.50;;;;;;;32.06;31.71;100977.81;5063911;28;20202;-67
2021/07/04 09:15:23;;;;;;;2.40;1.58;;;;;;;31.91;32.29;100980.22;5055984;28;20225;-67
2021/07/04 09:17:54;;;;;;;1.77;1.50;;;;;;;31.65;32.07;100975.91;5060255;28;20202;-71
2021/07/04 09:20:34;;;;;;;1.30;1.20;;;;;;;31.38;29.91;100978.22;5060400;28;20213;-70
2021/07/04 09:23:03;;;;;;;2.63;1.40;;;;;;;31.51;29.75;100978.88;5054127;28;20202;-71
2021/07/04 09:25:36;;;;;;;1.55;1.45;;;;;;;31.58;30.97;100964.91;5053543;28;20198;-71
2021/07/04 09:28:07;;;;;;;2.03;1.50;;;;;;;32.06;30.48;100966.72;5056086;28;20201;-71
2021/07/04 09:30:38;;;;;;;1.40;1.30;;;;;;;31.75;29.67;100971.50;5052249;28;20315;-71
2021/07/04 09:33:15;;;;;;;1.38;1.27;;;;;;;32.25;30.74;100973.91;5050786;28;20202;-71
2021/07/04 09:35:56;;;;;;;1.52;1.42;;;;;;;31.90;31.11;100954.38;5052659;28;20224;-70
2021/07/04 09:38:25;;;;;;;1.42;1.33;;;;;;;31.86;29.16;100975.41;5057078;28;20221;-70
2021/07/04 09:40:54;;;;;;;1.75;1.63;;;;;;;31.76;29.08;100973.19;5057077;28;20197;-70
2021/07/04 09:43:24;;;;;;;1.52;1.25;;;;;;;31.44;28.81;100963.41;5057719;28;20299;-71
2021/07/04 09:45:54;;;;;;;1.10;1.10;;;;;;;31.64;29.64;100975.06;5062399;28;20208;-68
2021/07/04 09:48:38;;;;;;;1.50;1.40;;;;;;;31.56;29.84;100971.78;5054828;28;20205;-67
2021/07/04 09:51:11;;;;;;;1.60;1.30;;;;;;;31.32;29.49;100977.25;5053680;28;20212;-67
2021/07/04 09:53:45;;;;;;;1.50;1.40;;;;;;;31.47;30.24;100968.47;5054001;28;20233;-66
2021/07/04 09:56:15;;;;;;;1.65;1.55;;;;;;;31.37;28.72;100971.81;5054580;28;20273;-67
2021/07/04 09:58:49;;;;;;;3.05;1.50;;;;;;;32.22;30.10;100977.13;5056129;28;20209;-67
2021/07/04 10:01:38;;;;;;;1.50;1.40;;;;;;;32.46;30.20;100966.88;5056705;28;20198;-67
2021/07/04 10:04:08;;;;;;;1.67;1.58;;;;;;;31.71;28.59;100967.50;5056842;28;20201;-67
2021/07/04 10:06:47;;;;;;;1.38;1.30;;;;;;;32.16;30.25;100960.56;5055329;28;20209;-67
2021/07/04 10:09:17;;;;;;;3.28;1.98;;;;;;;32.37;31.11;100959.97;5054820;28;20331;-67
2021/07/04 10:11:45;;;;;;;3.22;1.55;;;;;;;32.52;30.89;100956.72;5062778;28;20212;-67
2021/07/04 10:14:15;;;;;;;2.10;1.67;;;;;;;31.98;30.59;100959.56;5056844;28;20301;-68
2021/07/04 10:16:46;;;;;;;3.00;1.48;;;;;;;31.78;31.07;100951.56;5058381;28;20220;-68
2021/07/04 10:19:18;;;;;;;1.50;1.40;;;;;;;31.78;30.85;100965.44;5061854;28;20186;-68
2021/07/04 10:21:49;;;;;;;1.60;1.50;;;;;;;31.34;31.42;100940.91;5056150;28;20197;-68
2021/07/04 10:24:18;;;;;;;1.98;1.65;;;;;;;31.79;32.19;100956.03;5052898;28;20290;-66
2021/07/04 10:26:47;;;;;;;1.83;1.48;;;;;;;31.57;31.57;100952.09;5059190;28;20201;-66
2021/07/04 10:29:18;;;;;;;1.38;1.30;;;;;;;31.13;31.80;100953.34;5065015;28;20656;-67
2021/07/04 10:31:47;;;;;;;2.63;1.40;;;;;;;31.09;31.81;100950.19;5063162;28;20340;-67
2021/07/04 10:34:18;;;;;;;1.45;1.35;;;;;;;30.64;33.39;100951.63;5064814;28;20201;-66
2021/07/04 10:36:58;;;;;;;2.22;1.50;;;;;;;30.31;34.76;100958.34;5057466;28;20212;-67
2021/07/04 10:39:28;;;;;;;2.40;1.55;;;;;;;30.11;33.67;100949.38;5061654;28;20557;-67
2021/07/04 10:41:57;;;;;;;1.50;1.40;;;;;;;30.13;34.44;100956.38;5060316;28;20201;-67
2021/07/04 10:44:41;;;;;;;2.75;2.03;;;;;;;30.15;36.35;100945.91;5060231;28;20200;-67
2021/07/04 10:47:12;;;;;;;1.70;1.60;;;;;;;30.21;34.56;100946.91;5060515;28;20208;-68
2021/07/04 10:49:44;;;;;;;2.38;1.48;;;;;;;30.21;35.47;100942.22;5060347;28;20487;-67
2021/07/04 10:52:15;;;;;;;3.30;1.67;;;;;;;29.85;36.75;100944.88;5056985;28;21291;-67
2021/07/04 10:54:50;;;;;;;2.00;1.80;;;;;;;29.75;36.56;100944.53;5061305;28;20296;-67
2021/07/04 10:57:33;;;;;;;1.70;1.60;;;;;;;29.60;35.84;100944.84;5051226;28;20714;-67
2021/07/04 11:00:21;;;;;;;3.17;2.15;;;;;;;29.42;35.70;100941.97;5054093;28;20624;-67
2021/07/04 11:02:51;;;;;;;1.58;1.48;;;;;;;29.34;35.73;100934.75;5052236;28;20206;-67
2021/07/04 11:05:46;;;;;;;4.38;1.50;;;;;;;29.49;35.23;100943.66;5054156;28;20208;-67
2021/07/04 11:08:16;;;;;;;2.20;1.50;;;;;;;29.50;35.90;100947.25;5060249;28;20193;-67
2021/07/04 11:11:06;;;;;;;2.60;2.20;;;;;;;29.45;35.13;100938.78;5060717;28;20312;-67
2021/07/04 11:14:07;;;;;;;2.15;1.73;;;;;;;29.30;35.47;100939.88;5063233;28;20189;-68
2021/07/04 11:16:37;;;;;;;2.20;1.60;;;;;;;29.15;37.21;100933.81;5058261;28;20213;-67
2021/07/04 11:19:08;;;;;;;3.03;1.63;;;;;;;29.01;37.71;100935.78;5058324;28;20191;-67
2021/07/04 11:21:57;;;;;;;2.92;1.60;;;;;;;28.97;36.01;100936.47;5058041;28;20209;-67
2021/07/04 11:24:27;;;;;;;1.70;1.60;;;;;;;28.94;35.94;100939.66;5060062;28;20196;-67
2021/07/04 11:27:22;;;;;;;1.70;1.60;;;;;;;29.00;35.84;100934.09;5063920;28;20212;-67
2021/07/04 11:30:24;;;;;;;2.08;1.60;;;;;;;28.96;36.79;100937.53;5060341;28;20206;-67
2021/07/04 11:33:28;;;;;;;1.58;1.40;;;;;;;28.72;35.07;100934.41;5053626;28;20267;-67
2021/07/04 11:35:58;;;;;;;3.67;1.50;;;;;;;28.54;35.83;100934.25;5043810;28;20242;-66
2021/07/04 11:38:35;;;;;;;1.55;1.45;;;;;;;28.88;34.39;100932.25;5039306;28;20198;-67
2021/07/04 11:41:07;;;;;;;1.60;1.50;;;;;;;28.83;36.27;100909.91;5061362;28;20302;-67
2021/07/04 11:43:39;;;;;;;1.48;1.10;;;;;;;28.94;34.96;100929.44;5064750;28;20213;-69